createdAt,value
2022-08-22T00:02:13.873Z,1.90
2022-08-22T00:02:42.144Z,2.80
2022-08-22T00:02:45.173Z,2.80
2022-08-22T00:02:48.505Z,2.90
2022-08-22T00:02:59.227Z,1.90
2022-08-22T00:03:15.146Z,2.10
2022-08-22T00:05:17.449Z,2.00
2022-08-22T00:08:20.054Z,2.10
2022-08-22T00:11:19.546Z,2.10
2022-08-22T00:14:18.835Z,2.00
2022-08-22T00:17:32.766Z,1.90
2022-08-22T00:20:30.450Z,2.30
2022-08-22T00:23:29.466Z,2.00
2022-08-22T00:26:37.224Z,2.00
2022-08-22T00:29:34.070Z,2.10
2022-08-22T00:32:31.513Z,2.00
2022-08-22T00:35:25.635Z,2.00
2022-08-22T00:38:22.191Z,2.20
2022-08-22T00:41:30.224Z,2.20
2022-08-22T00:45:06.500Z,2.20
2022-08-22T00:48:14.666Z,2.10
2022-08-22T00:51:42.839Z,2.20
2022-08-22T00:54:52.282Z,2.20
2022-08-22T00:57:55.129Z,2.10
2022-08-22T01:00:53.197Z,2.20
2022-08-22T01:04:12.274Z,2.00
2022-08-22T01:07:16.094Z,1.90
2022-08-22T01:10:21.332Z,2.00
2022-08-22T01:13:27.682Z,2.00
2022-08-22T01:16:32.896Z,2.10
2022-08-22T01:19:50.544Z,1.90
2022-08-22T01:23:17.410Z,2.00
2022-08-22T01:26:56.184Z,2.00
2022-08-22T01:30:16.573Z,2.10
2022-08-22T01:33:38.628Z,2.20
2022-08-22T01:37:01.899Z,1.90
2022-08-22T01:40:33.141Z,1.90
2022-08-22T01:43:58.946Z,1.80
2022-08-22T01:46:52.477Z,2.10
2022-08-22T01:49:45.509Z,2.30
2022-08-22T01:52:44.646Z,2.20
2022-08-22T01:55:40.587Z,2.20
2022-08-22T01:58:36.187Z,2.00
2022-08-22T02:01:40.321Z,2.00
2022-08-22T02:04:40.091Z,2.00
2022-08-22T02:07:43.340Z,2.20
2022-08-22T02:10:50.766Z,2.00
2022-08-22T02:13:51.516Z,2.10
2022-08-22T02:16:46.167Z,2.00
2022-08-22T02:19:46.191Z,2.00
2022-08-22T02:22:44.853Z,1.90
2022-08-22T02:25:56.238Z,2.10
2022-08-22T02:28:58.012Z,1.90
2022-08-22T02:31:58.348Z,2.00
2022-08-22T02:34:59.687Z,2.10
2022-08-22T02:38:02.812Z,2.10
2022-08-22T02:41:07.524Z,2.00
2022-08-22T02:44:04.912Z,2.00
2022-08-22T02:47:11.248Z,2.00
2022-08-22T02:50:13.038Z,2.00
2022-08-22T02:53:11.618Z,2.20
2022-08-22T02:56:10.809Z,1.80
2022-08-22T02:59:14.102Z,2.00
2022-08-22T03:02:30.071Z,2.10
2022-08-22T03:05:28.174Z,2.30
2022-08-22T03:08:26.311Z,2.30
2022-08-22T03:11:26.238Z,1.90
2022-08-22T03:14:23.420Z,2.10
2022-08-22T03:17:23.358Z,2.10
2022-08-22T03:20:23.269Z,2.10
2022-08-22T03:23:21.363Z,1.80
2022-08-22T03:26:20.058Z,2.10
2022-08-22T03:29:14.597Z,1.90
2022-08-22T03:32:13.405Z,1.90
2022-08-22T03:35:09.888Z,1.90
2022-08-22T03:38:15.927Z,2.00
2022-08-22T03:41:34.962Z,1.90
2022-08-22T03:45:13.846Z,1.80
2022-08-22T03:48:32.529Z,1.90
2022-08-22T03:51:32.915Z,1.90
2022-08-22T03:54:49.694Z,1.90
2022-08-22T03:58:19.201Z,1.90
2022-08-22T04:01:41.862Z,1.90
2022-08-22T04:05:05.643Z,2.00
2022-08-22T04:08:27.447Z,1.90
2022-08-22T04:11:31.761Z,1.90
2022-08-22T04:14:44.244Z,2.10
2022-08-22T04:17:58.166Z,2.00
2022-08-22T04:21:18.896Z,2.10
2022-08-22T04:24:32.297Z,2.00
2022-08-22T04:27:31.217Z,1.90
2022-08-22T04:30:31.601Z,1.80
2022-08-22T04:33:29.624Z,1.80
2022-08-22T04:36:27.613Z,1.90
2022-08-22T04:39:24.165Z,1.80
2022-08-22T04:42:35.119Z,2.10
2022-08-22T04:45:33.743Z,1.70
2022-08-22T04:48:32.359Z,1.60
2022-08-22T04:51:28.919Z,1.80
2022-08-22T04:54:34.871Z,1.50
2022-08-22T04:57:34.320Z,1.80
2022-08-22T05:00:27.523Z,1.90
2022-08-22T05:03:21.342Z,1.90
2022-08-22T05:06:16.519Z,1.70
2022-08-22T05:09:15.893Z,1.80
2022-08-22T05:12:12.587Z,1.80
2022-08-22T05:15:09.787Z,1.90
2022-08-22T05:18:11.412Z,1.90
2022-08-22T05:21:11.226Z,1.90
2022-08-22T05:24:09.391Z,2.00
2022-08-22T05:27:11.363Z,2.40
2022-08-22T05:30:09.064Z,1.70
2022-08-22T05:33:05.425Z,2.00
2022-08-22T05:36:00.278Z,2.00
2022-08-22T05:38:55.458Z,2.00
2022-08-22T05:41:48.305Z,1.80
2022-08-22T05:44:40.760Z,2.20
2022-08-22T05:47:39.630Z,2.00
2022-08-22T05:50:38.462Z,2.30
2022-08-22T05:53:36.880Z,2.20
2022-08-22T05:56:38.132Z,2.30
2022-08-22T05:59:33.069Z,2.10
2022-08-22T06:02:35.227Z,2.30
2022-08-22T06:05:30.147Z,2.20
2022-08-22T06:08:26.266Z,2.00
2022-08-22T06:11:22.873Z,2.10
2022-08-22T06:14:26.190Z,2.10
2022-08-22T06:17:22.087Z,2.20
2022-08-22T06:20:17.532Z,2.00
2022-08-22T06:23:09.827Z,2.00
2022-08-22T06:26:02.647Z,2.30
2022-08-22T06:28:59.729Z,2.00
2022-08-22T06:31:52.062Z,2.10
2022-08-22T06:34:47.253Z,2.20
2022-08-22T06:37:40.122Z,2.00
2022-08-22T06:40:31.876Z,2.20
2022-08-22T06:43:23.963Z,2.00
2022-08-22T06:46:17.012Z,2.20
2022-08-22T06:49:09.291Z,2.70
2022-08-22T06:52:06.513Z,2.80
2022-08-22T06:55:01.568Z,2.40
2022-08-22T06:57:57.932Z,2.40
2022-08-22T07:01:02.127Z,2.40
2022-08-22T07:04:07.096Z,2.00
2022-08-22T07:07:00.799Z,2.50
2022-08-22T07:09:55.678Z,2.50
2022-08-22T07:12:51.203Z,2.80
2022-08-22T07:15:44.866Z,2.70
2022-08-22T07:18:35.071Z,2.50
2022-08-22T07:21:32.573Z,2.40
2022-08-22T07:24:30.546Z,2.90
2022-08-22T07:27:32.372Z,2.60
2022-08-22T07:30:27.627Z,2.40
2022-08-22T07:33:32.453Z,2.50
2022-08-22T07:36:31.762Z,2.50
2022-08-22T07:39:28.940Z,2.40
2022-08-22T07:42:26.507Z,2.20
2022-08-22T07:45:26.389Z,2.30
2022-08-22T07:48:26.511Z,2.40
2022-08-22T07:51:19.583Z,2.30
2022-08-22T07:54:15.729Z,2.60
2022-08-22T07:57:15.513Z,2.40
2022-08-22T08:00:13.694Z,2.60
2022-08-22T08:03:07.422Z,2.20
2022-08-22T08:05:58.395Z,2.40
2022-08-22T08:08:49.415Z,2.40
2022-08-22T08:11:44.942Z,2.30
2022-08-22T08:14:38.459Z,2.90
2022-08-22T08:17:32.481Z,2.50
2022-08-22T08:20:25.445Z,2.60
2022-08-22T08:23:23.652Z,2.60
2022-08-22T08:26:17.529Z,2.40
2022-08-22T08:29:08.470Z,2.90
2022-08-22T08:32:00.422Z,2.90
2022-08-22T08:34:52.016Z,3.00
2022-08-22T08:37:47.561Z,3.10
2022-08-22T08:41:01.715Z,3.10
2022-08-22T08:43:59.781Z,2.80
2022-08-22T08:47:11.316Z,2.70
2022-08-22T08:50:29.446Z,2.50
2022-08-22T08:53:43.573Z,2.90
2022-08-22T08:56:44.943Z,3.00
2022-08-22T08:59:48.692Z,2.40
2022-08-22T09:02:55.681Z,2.90
2022-08-22T09:06:09.795Z,2.50
2022-08-22T09:09:13.059Z,2.90
2022-08-22T09:12:17.642Z,2.60
2022-08-22T09:15:22.318Z,2.70
2022-08-22T09:18:35.007Z,2.80
2022-08-22T09:25:01.176Z,2.60
2022-08-22T09:28:08.076Z,2.70
2022-08-22T09:31:21.944Z,2.80
2022-08-22T09:34:30.862Z,3.00
2022-08-22T09:37:25.475Z,3.10
2022-08-22T09:43:19.820Z,2.90
2022-08-22T09:46:18.637Z,3.00
2022-08-22T09:49:14.536Z,3.00
2022-08-22T09:52:15.455Z,2.80
2022-08-22T09:55:16.062Z,3.00
2022-08-22T09:58:16.385Z,3.20
2022-08-22T10:01:17.233Z,3.10
2022-08-22T10:04:54.450Z,3.20
2022-08-22T10:08:26.205Z,3.00
2022-08-22T10:11:23.956Z,3.00
2022-08-22T10:14:22.760Z,3.00
2022-08-22T10:17:21.973Z,2.70
2022-08-22T10:20:23.625Z,3.00
2022-08-22T10:23:21.305Z,3.20
2022-08-22T10:26:25.975Z,2.90
2022-08-22T10:29:41.959Z,3.00
2022-08-22T10:32:40.550Z,3.10
2022-08-22T10:35:39.146Z,3.10
2022-08-22T10:38:36.054Z,3.00
2022-08-22T10:41:40.908Z,3.00
2022-08-22T10:44:46.688Z,2.90
2022-08-22T10:47:46.092Z,3.20
2022-08-22T10:50:39.687Z,3.40
2022-08-22T10:53:42.876Z,3.20
2022-08-22T10:56:43.925Z,3.10
2022-08-22T10:59:44.182Z,3.20
2022-08-22T11:02:53.279Z,3.00
2022-08-22T11:05:50.265Z,3.20
2022-08-22T11:09:01.477Z,2.90
2022-08-22T11:12:02.701Z,2.60
2022-08-22T11:15:34.575Z,2.50
2022-08-22T11:18:36.864Z,2.80
2022-08-22T11:21:34.235Z,2.80
2022-08-22T11:24:56.699Z,2.80
2022-08-22T11:28:02.577Z,2.70
2022-08-22T11:31:07.269Z,2.90
2022-08-22T11:34:10.258Z,2.70
2022-08-22T11:37:11.633Z,2.80
2022-08-22T11:40:19.559Z,3.00
2022-08-22T11:43:32.741Z,2.90
2022-08-22T11:46:34.114Z,2.70
2022-08-22T11:49:40.391Z,2.60
2022-08-22T11:52:56.812Z,2.70
2022-08-22T11:55:56.391Z,2.80
2022-08-22T11:58:57.453Z,2.80
2022-08-22T12:01:52.758Z,2.70
2022-08-22T12:04:47.520Z,2.90
2022-08-22T12:07:46.224Z,2.90
2022-08-22T12:10:49.186Z,2.90
2022-08-22T12:13:50.793Z,3.00
2022-08-22T12:17:06.677Z,2.70
2022-08-22T12:20:18.748Z,2.80
2022-08-22T12:23:43.723Z,2.60
2022-08-22T12:26:55.075Z,2.90
2022-08-22T12:29:57.272Z,2.80
2022-08-22T12:33:21.914Z,2.70
2022-08-22T12:36:31.617Z,2.90
2022-08-22T12:39:41.702Z,2.90
2022-08-22T12:42:55.707Z,2.70
2022-08-22T12:46:13.125Z,2.80
2022-08-22T12:49:20.554Z,2.70
2022-08-22T12:52:26.476Z,2.70
2022-08-22T12:55:38.062Z,2.80
2022-08-22T12:58:43.045Z,2.40
2022-08-22T13:01:43.484Z,2.20
2022-08-22T13:04:38.190Z,2.60
2022-08-22T13:07:33.873Z,2.30
2022-08-22T13:10:46.389Z,2.60
2022-08-22T13:13:43.471Z,2.50
2022-08-22T13:16:51.186Z,2.70
2022-08-22T13:19:55.810Z,2.60
2022-08-22T13:22:50.441Z,2.50
2022-08-22T13:26:11.605Z,2.60
2022-08-22T13:29:25.714Z,2.40
2022-08-22T13:32:27.839Z,2.50
2022-08-22T13:35:28.804Z,2.40
2022-08-22T13:38:26.465Z,2.40
2022-08-22T13:41:25.358Z,2.60
2022-08-22T13:44:22.307Z,2.30
2022-08-22T13:47:16.204Z,2.50
2022-08-22T13:50:14.977Z,2.30
2022-08-22T13:53:14.284Z,2.30
2022-08-22T13:56:15.407Z,2.50
2022-08-22T13:59:29.272Z,2.60
2022-08-22T14:02:43.543Z,2.60
2022-08-22T14:05:42.799Z,2.20
2022-08-22T14:08:37.435Z,2.40
2022-08-22T14:11:45.408Z,2.20
2022-08-22T14:14:40.464Z,2.10
2022-08-22T14:17:42.472Z,2.50
2022-08-22T14:20:34.002Z,2.00
2022-08-22T14:23:30.711Z,2.30
2022-08-22T14:26:32.965Z,1.90
2022-08-22T14:29:31.895Z,2.10
2022-08-22T14:32:44.551Z,2.10
2022-08-22T14:35:39.703Z,2.20
2022-08-22T14:38:37.252Z,1.90
2022-08-22T14:41:52.346Z,1.70
2022-08-22T14:44:52.172Z,2.20
2022-08-22T14:48:14.047Z,2.10
2022-08-22T14:51:04.154Z,2.00
2022-08-22T14:54:09.875Z,2.00
2022-08-22T14:57:10.299Z,2.10
2022-08-22T15:00:04.938Z,2.20
2022-08-22T15:02:55.907Z,2.30
2022-08-22T15:05:50.867Z,1.90
2022-08-22T15:08:51.060Z,2.10
2022-08-22T15:11:48.512Z,1.90
2022-08-22T15:14:52.081Z,1.90
2022-08-22T15:17:51.011Z,2.10
2022-08-22T15:20:49.051Z,2.10
2022-08-22T15:23:46.951Z,2.10
2022-08-22T15:26:41.007Z,1.80
2022-08-22T15:29:36.759Z,2.00
2022-08-22T15:32:30.013Z,1.90
2022-08-22T15:35:32.093Z,2.40
2022-08-22T15:38:37.580Z,2.00
2022-08-22T15:41:46.427Z,1.90
2022-08-22T15:44:40.593Z,2.20
2022-08-22T15:47:41.548Z,2.20
2022-08-22T15:50:35.775Z,2.30
2022-08-22T15:53:29.388Z,2.60
2022-08-22T15:56:34.472Z,2.20
2022-08-22T15:59:48.022Z,2.30
2022-08-22T16:02:59.294Z,1.90
2022-08-22T16:05:57.266Z,2.00
2022-08-22T16:08:54.399Z,2.00
2022-08-22T16:11:53.710Z,2.30
2022-08-22T16:14:52.308Z,2.20
2022-08-22T16:17:46.190Z,2.00
2022-08-22T16:20:59.659Z,2.10
2022-08-22T16:24:31.298Z,2.10
2022-08-22T16:27:27.323Z,2.20
2022-08-22T16:30:17.883Z,2.00
2022-08-22T16:33:18.511Z,2.00
2022-08-22T16:36:48.119Z,2.30
2022-08-22T16:39:44.597Z,2.10
2022-08-22T16:42:41.400Z,2.10
2022-08-22T16:45:39.024Z,2.20
2022-08-22T16:48:39.223Z,2.10
2022-08-22T16:51:29.965Z,2.00
2022-08-22T16:54:46.441Z,2.10
2022-08-22T16:58:05.047Z,2.20
2022-08-22T17:01:04.989Z,2.80
2022-08-22T17:04:09.593Z,2.40
2022-08-22T17:07:29.355Z,1.90
2022-08-22T17:10:43.886Z,2.20
2022-08-22T17:13:51.050Z,2.60
2022-08-22T17:17:00.061Z,2.50
2022-08-22T17:20:08.994Z,2.70
2022-08-22T17:23:09.809Z,2.90
2022-08-22T17:26:07.557Z,9.20
2022-08-22T17:29:10.369Z,3.80
2022-08-22T17:32:11.391Z,2.10
2022-08-22T17:35:14.381Z,2.10
2022-08-22T17:38:14.429Z,3.30
2022-08-22T17:41:14.296Z,3.00
2022-08-22T17:44:15.278Z,3.00
2022-08-22T17:47:14.985Z,2.90
2022-08-22T17:50:11.419Z,2.40
2022-08-22T17:53:07.584Z,2.00
2022-08-22T17:56:05.976Z,2.30
2022-08-22T17:59:04.631Z,2.20
2022-08-22T18:01:59.860Z,2.60
2022-08-22T18:04:59.307Z,2.10
2022-08-22T18:08:05.921Z,2.40
2022-08-22T18:11:03.156Z,2.30
2022-08-22T18:13:59.238Z,2.30
2022-08-22T18:16:59.277Z,2.40
2022-08-22T18:19:57.647Z,2.60
2022-08-22T18:22:53.354Z,2.30
2022-08-22T18:25:54.807Z,2.10
2022-08-22T18:28:52.378Z,2.70
2022-08-22T18:31:51.165Z,2.30
2022-08-22T18:34:48.338Z,2.20
2022-08-22T18:37:55.022Z,2.20
2022-08-22T18:40:51.610Z,2.30
2022-08-22T18:43:44.621Z,3.90
2022-08-22T18:46:46.556Z,3.30
2022-08-22T18:50:00.346Z,8.90
2022-08-22T18:52:53.425Z,6.30
2022-08-22T18:55:57.611Z,5.50
2022-08-22T18:59:05.297Z,5.20
2022-08-22T19:02:10.160Z,5.00
2022-08-22T19:05:14.872Z,4.20
2022-08-22T19:08:34.446Z,4.00
2022-08-22T19:11:40.641Z,3.00
2022-08-22T19:15:06.030Z,3.20
2022-08-22T19:18:23.163Z,3.30
2022-08-22T19:21:43.663Z,3.70
2022-08-22T19:25:00.155Z,3.00
2022-08-22T19:28:26.849Z,2.60
2022-08-22T19:31:26.887Z,2.80
2022-08-22T19:34:36.164Z,2.30
2022-08-22T19:37:34.171Z,2.40
2022-08-22T19:40:53.475Z,2.20
2022-08-22T19:43:44.320Z,2.50
2022-08-22T19:46:42.243Z,2.10
2022-08-22T19:49:37.355Z,2.30
2022-08-22T19:52:39.764Z,2.10
2022-08-22T19:55:36.674Z,2.30
2022-08-22T19:58:35.912Z,1.90
2022-08-22T20:01:45.366Z,2.00
2022-08-22T20:04:51.473Z,2.10
2022-08-22T20:08:16.096Z,2.20
2022-08-22T20:11:19.868Z,2.10
2022-08-22T20:14:26.571Z,2.20
2022-08-22T20:17:43.861Z,2.10
2022-08-22T20:20:40.407Z,2.30
2022-08-22T20:23:33.666Z,2.10
2022-08-22T20:26:24.422Z,2.10
2022-08-22T20:29:16.415Z,2.80
2022-08-22T20:32:07.819Z,2.90
2022-08-22T20:35:01.637Z,2.60
2022-08-22T20:38:06.598Z,2.30
2022-08-22T20:41:11.184Z,2.30
2022-08-22T20:44:12.336Z,2.20
2022-08-22T20:47:06.644Z,2.50
2022-08-22T20:50:01.954Z,2.30
2022-08-22T20:53:09.417Z,2.30
2022-08-22T20:56:00.537Z,2.10
2022-08-22T20:58:50.862Z,2.00
2022-08-22T21:01:42.049Z,2.30
2022-08-22T21:04:42.670Z,2.40
2022-08-22T21:07:35.457Z,2.20
2022-08-22T21:10:46.410Z,2.50
2022-08-22T21:13:38.865Z,2.10
2022-08-22T21:16:34.806Z,2.00
2022-08-22T21:19:30.398Z,2.10
2022-08-22T21:22:27.850Z,2.10
2022-08-22T21:25:18.314Z,1.90
2022-08-22T21:28:08.415Z,2.00
2022-08-22T21:30:59.285Z,1.90
2022-08-22T21:33:53.095Z,2.10
2022-08-22T21:36:44.020Z,2.10
2022-08-22T21:39:43.377Z,2.00
2022-08-22T21:42:37.118Z,1.80
2022-08-22T21:45:32.486Z,1.90
2022-08-22T21:48:41.450Z,1.80
2022-08-22T21:51:42.090Z,1.90
2022-08-22T21:54:43.910Z,1.90
2022-08-22T21:57:38.430Z,1.80
2022-08-22T22:00:54.747Z,1.80
2022-08-22T22:03:47.406Z,1.80
2022-08-22T22:06:38.723Z,1.80
2022-08-22T22:09:29.618Z,2.00
2022-08-22T22:12:20.391Z,2.00
2022-08-22T22:15:14.240Z,2.10
2022-08-22T22:18:05.040Z,2.00
2022-08-22T22:20:58.490Z,2.30
2022-08-22T22:23:50.519Z,2.10
2022-08-22T22:26:41.859Z,3.60
2022-08-22T22:29:32.854Z,2.80
2022-08-22T22:32:23.472Z,2.20
2022-08-22T22:35:14.103Z,2.20
2022-08-22T22:38:04.322Z,2.10
2022-08-22T22:40:55.294Z,2.20
2022-08-22T22:43:45.934Z,2.00
2022-08-22T22:46:36.162Z,1.80
2022-08-22T22:49:26.592Z,1.90
2022-08-22T22:52:17.240Z,2.20
2022-08-22T22:55:09.476Z,3.30
2022-08-22T22:58:00.681Z,2.60
2022-08-22T23:00:51.454Z,1.90
2022-08-22T23:03:42.355Z,2.00
2022-08-22T23:06:33.822Z,1.80
2022-08-22T23:09:38.127Z,1.80
2022-08-22T23:12:36.444Z,1.90
2022-08-22T23:15:26.817Z,1.80
2022-08-22T23:18:17.662Z,1.70
2022-08-22T23:21:17.786Z,1.90
2022-08-22T23:24:08.369Z,3.70
2022-08-22T23:27:00.177Z,3.10
2022-08-22T23:29:51.310Z,2.10
2022-08-22T23:32:41.848Z,2.00
2022-08-22T23:35:34.873Z,1.90
2022-08-22T23:38:25.899Z,2.00
2022-08-22T23:41:19.050Z,2.10
2022-08-22T23:44:13.610Z,2.00
2022-08-22T23:47:06.364Z,1.60
2022-08-22T23:49:55.999Z,1.90
2022-08-22T23:52:46.502Z,1.90
2022-08-22T23:55:36.541Z,1.60
2022-08-22T23:58:28.368Z,2.00
